Time;durP1;ratioP1;P1;durP2;ratioP2;P2;SDS_P1;SDS_P2;PMS_P1;PMS_P2;Temp;Humidity;BMP_temperature;BMP_pressure;BME280_temperature;BME280_humidity;BME280_pressure;Samples;Min_cycle;Max_cycle;Signal;HPM_P1;HPM_P2
2024/01/16 00:01:43;;;;;;;30.80;19.30;;;;;;;20.27;29.07;99171.46;104019;1282;62079;-77
2024/01/16 00:04:10;;;;;;;30.10;20.30;;;;;;;20.26;29.04;99167.63;103771;1288;62211;-76
2024/01/16 00:06:41;;;;;;;32.10;19.40;;;;;;;20.25;29.17;99167.05;104065;1283;62175;-78
2024/01/16 00:09:07;;;;;;;30.80;19.50;;;;;;;20.24;29.07;99171.98;104162;1281;62194;-76
2024/01/16 00:11:33;;;;;;;31.50;20.10;;;;;;;20.22;29.00;99173.20;104067;1283;63377;-76
2024/01/16 00:13:59;;;;;;;29.80;19.20;;;;;;;20.21;29.07;99182.76;103822;1287;62184;-76
2024/01/16 00:16:24;;;;;;;27.20;18.60;;;;;;;20.20;29.14;99191.61;103824;1282;62181;-77
2024/01/16 00:18:50;;;;;;;30.60;19.50;;;;;;;20.19;29.07;99190.79;103931;1283;63408;-77
2024/01/16 00:21:15;;;;;;;33.10;19.60;;;;;;;20.19;29.04;99196.95;103870;1283;62250;-78
2024/01/16 00:23:41;;;;;;;26.20;18.10;;;;;;;20.18;29.12;99200.77;103868;1283;72542;-76
2024/01/16 00:26:07;;;;;;;26.20;17.80;;;;;;;20.17;29.17;99201.19;103830;1288;62199;-76
2024/01/16 00:28:32;;;;;;;31.20;19.00;;;;;;;20.16;29.19;99191.95;103856;1282;63359;-76
2024/01/16 00:30:58;;;;;;;28.10;17.70;;;;;;;20.15;29.18;99185.81;103941;1285;62215;-76
2024/01/16 00:33:24;;;;;;;28.50;19.30;;;;;;;20.14;29.29;99194.47;103656;1283;62111;-77
2024/01/16 00:35:49;;;;;;;28.20;18.30;;;;;;;20.14;29.13;99197.20;103730;1283;62495;-76
2024/01/16 00:38:15;;;;;;;26.00;18.40;;;;;;;20.13;29.20;99201.21;104075;1285;62560;-77
2024/01/16 00:40:41;;;;;;;28.40;18.10;;;;;;;20.12;29.15;99214.83;104099;1283;62128;-75
2024/01/16 00:43:07;;;;;;;26.80;18.50;;;;;;;20.12;29.19;99215.41;103975;1283;62966;-76
2024/01/16 00:45:32;;;;;;;26.70;17.70;;;;;;;20.11;29.17;99214.39;103909;1283;62127;-77
2024/01/16 00:47:58;;;;;;;25.80;17.50;;;;;;;20.10;29.21;99216.23;104089;1283;62999;-77
2024/01/16 00:50:24;;;;;;;28.20;18.50;;;;;;;20.10;29.18;99218.95;104023;1285;62119;-76
2024/01/16 00:52:50;;;;;;;26.00;17.20;;;;;;;20.09;29.23;99222.44;103928;1282;62687;-77
2024/01/16 00:55:16;;;;;;;25.20;17.80;;;;;;;20.09;29.26;99224.61;103855;1283;62539;-77
2024/01/16 00:57:41;;;;;;;22.90;16.30;;;;;;;20.09;29.21;99229.41;103737;1286;63367;-76
2024/01/16 01:00:09;;;;;;;24.20;16.70;;;;;;;20.09;29.25;99223.12;103812;1283;62098;-75
2024/01/16 01:02:36;;;;;;;26.30;16.80;;;;;;;20.11;29.29;99226.05;104031;1282;62180;-76
2024/01/16 01:05:01;;;;;;;26.10;17.10;;;;;;;20.13;29.24;99226.78;104138;1283;62198;-76
2024/01/16 01:07:27;;;;;;;23.10;16.00;;;;;;;20.14;29.21;99226.63;103787;1283;62286;-77
2024/01/16 01:09:53;;;;;;;23.90;15.60;;;;;;;20.16;29.30;99218.41;103868;1283;62177;-75
2024/01/16 01:12:18;;;;;;;25.00;16.10;;;;;;;20.19;29.21;99208.88;103896;1283;62062;-77
2024/01/16 01:14:44;;;;;;;23.00;15.90;;;;;;;20.20;29.13;99208.90;104137;1281;62209;-77
2024/01/16 01:17:09;;;;;;;22.80;16.50;;;;;;;20.23;29.01;99211.85;103728;1283;63283;-77
2024/01/16 01:19:35;;;;;;;23.30;15.60;;;;;;;20.25;29.07;99210.02;103810;1287;62103;-76
2024/01/16 01:22:01;;;;;;;24.70;15.30;;;;;;;20.28;29.03;99209.27;104035;1283;62181;-78
2024/01/16 01:24:27;;;;;;;22.00;15.70;;;;;;;20.31;29.17;99205.25;104013;1283;63003;-77
2024/01/16 01:26:52;;;;;;;23.90;15.40;;;;;;;20.33;29.01;99206.82;103884;1283;62194;-76
2024/01/16 01:29:18;;;;;;;21.90;14.90;;;;;;;20.35;29.03;99212.39;104103;1283;62075;-76
2024/01/16 01:31:49;;;;;;;22.20;14.70;;;;;;;20.38;28.90;99214.44;103688;1288;62211;-76
2024/01/16 01:34:15;;;;;;;22.30;15.20;;;;;;;20.40;28.99;99221.06;103902;1282;75033;-76
2024/01/16 01:36:41;;;;;;;23.00;14.70;;;;;;;20.41;28.89;99221.42;104077;1283;62252;-76
2024/01/16 01:39:07;;;;;;;20.50;13.90;;;;;;;20.44;28.98;99231.05;103833;1283;62287;-76
2024/01/16 01:41:33;;;;;;;20.00;13.50;;;;;;;20.46;28.93;99229.44;104210;1282;62140;-77
2024/01/16 01:44:04;;;;;;;19.90;13.90;;;;;;;20.47;28.85;99230.53;103920;1283;75076;-76
2024/01/16 01:46:30;;;;;;;19.00;13.80;;;;;;;20.49;28.81;99230.36;104066;1283;62092;-76
2024/01/16 01:48:55;;;;;;;18.30;13.40;;;;;;;20.50;28.92;99228.64;103626;1286;62325;-77
2024/01/16 01:51:21;;;;;;;20.50;13.40;;;;;;;20.52;28.99;99226.31;103755;1286;62223;-76
2024/01/16 01:53:48;;;;;;;17.90;13.50;;;;;;;20.54;28.91;99223.33;103837;1285;62201;-76
2024/01/16 01:56:15;;;;;;;17.50;12.40;;;;;;;20.56;28.89;99229.05;103919;1283;62270;-77
2024/01/16 01:58:43;;;;;;;20.70;13.20;;;;;;;20.57;28.82;99230.17;103792;1283;63290;-76
2024/01/16 02:01:08;;;;;;;20.80;14.40;;;;;;;20.58;28.87;99223.06;104105;1283;62274;-77
2024/01/16 02:03:39;;;;;;;19.50;12.60;;;;;;;20.59;28.93;99219.05;103946;1286;62696;-77
2024/01/16 02:06:05;;;;;;;20.00;13.50;;;;;;;20.60;28.94;99213.20;104004;1281;62196;-75
2024/01/16 02:08:32;;;;;;;16.80;12.40;;;;;;;20.62;28.83;99210.98;103981;1283;62101;-77
2024/01/16 02:10:57;;;;;;;17.60;12.60;;;;;;;20.62;28.94;99216.61;104088;1283;62229;-77
2024/01/16 02:13:23;;;;;;;19.60;12.20;;;;;;;20.64;28.89;99221.34;103931;1283;62255;-76
2024/01/16 02:15:50;;;;;;;17.80;12.40;;;;;;;20.65;28.80;99233.21;103724;1283;62069;-77
2024/01/16 02:18:17;;;;;;;17.80;12.40;;;;;;;20.66;28.85;99239.87;103816;1283;63437;-77
2024/01/16 02:20:43;;;;;;;18.40;12.40;;;;;;;20.67;28.94;99245.71;103773;1282;62175;-76
2024/01/16 02:23:10;;;;;;;16.70;11.90;;;;;;;20.68;28.87;99251.36;103771;1281;62107;-76
2024/01/16 02:25:35;;;;;;;17.70;12.20;;;;;;;20.68;28.96;99247.73;103773;1286;62235;-76
2024/01/16 02:28:02;;;;;;;17.20;11.40;;;;;;;20.69;28.81;99252.15;103948;1283;62258;-76
2024/01/16 02:30:28;;;;;;;14.60;11.50;;;;;;;20.70;28.91;99259.77;103497;1291;62191;-76
2024/01/16 02:32:54;;;;;;;16.30;11.80;;;;;;;20.70;28.91;99257.75;103341;1286;62516;-76
2024/01/16 02:35:20;;;;;;;15.70;11.70;;;;;;;20.71;28.75;99257.33;103694;1289;62387;-76
2024/01/16 02:37:45;;;;;;;16.30;10.90;;;;;;;20.71;28.74;99256.02;103566;1291;62287;-75
2024/01/16 02:40:11;;;;;;;15.80;11.20;;;;;;;20.72;28.87;99254.90;103712;1285;62287;-75
2024/01/16 02:42:37;;;;;;;15.20;11.40;;;;;;;20.73;28.88;99261.61;103641;1285;62616;-75
2024/01/16 02:45:07;;;;;;;16.30;10.90;;;;;;;20.73;28.95;99267.11;103528;1290;62082;-75
2024/01/16 02:47:33;;;;;;;14.30;11.00;;;;;;;20.74;28.85;99273.83;103359;1286;62256;-77
2024/01/16 02:49:59;;;;;;;15.00;10.70;;;;;;;20.74;28.97;99272.53;103618;1293;62358;-77
2024/01/16 02:52:25;;;;;;;16.50;10.90;;;;;;;20.75;28.96;99270.34;103433;1285;63423;-76
2024/01/16 02:54:51;;;;;;;14.90;10.90;;;;;;;20.75;28.87;99269.09;103415;1286;62177;-76
2024/01/16 02:57:17;;;;;;;14.70;10.40;;;;;;;20.75;28.95;99276.00;103584;1285;62132;-77
2024/01/16 02:59:46;;;;;;;13.20;10.00;;;;;;;20.76;28.94;99283.27;103924;1286;62549;-77
2024/01/16 03:02:11;;;;;;;14.20;10.60;;;;;;;20.77;28.89;99284.84;103458;1291;62150;-76
2024/01/16 03:04:37;;;;;;;15.10;10.30;;;;;;;20.77;28.87;99288.05;103464;1286;63242;-76
2024/01/16 03:07:03;;;;;;;14.90;10.50;;;;;;;20.77;28.93;99294.09;103356;1285;63617;-75
2024/01/16 03:09:29;;;;;;;12.90;9.50;;;;;;;20.78;28.88;99290.67;103902;1282;62115;-77
2024/01/16 03:11:55;;;;;;;13.50;9.90;;;;;;;20.78;28.85;99282.41;103557;1290;62148;-77
2024/01/16 03:14:20;;;;;;;14.80;10.40;;;;;;;20.78;28.94;99290.80;103922;1287;62171;-77
2024/01/16 03:16:46;;;;;;;14.40;10.60;;;;;;;20.79;29.00;99304.69;103928;1291;74223;-75
2024/01/16 03:19:12;;;;;;;14.10;9.70;;;;;;;20.79;28.86;99313.09;103973;1283;62534;-76
2024/01/16 03:21:38;;;;;;;12.90;9.40;;;;;;;20.79;28.97;99324.67;103922;1285;62196;-77
2024/01/16 03:24:05;;;;;;;14.10;9.70;;;;;;;20.79;28.91;99320.75;104323;1285;62172;-77
2024/01/16 03:26:32;;;;;;;14.60;9.50;;;;;;;20.80;28.90;99314.23;103732;1288;62321;-78
2024/01/16 03:28:58;;;;;;;13.50;9.50;;;;;;;20.81;28.91;99322.58;103906;1283;62146;-77
2024/01/16 03:31:24;;;;;;;12.40;9.40;;;;;;;20.80;29.01;99324.18;103834;1283;62104;-76
2024/01/16 03:33:50;;;;;;;12.80;9.70;;;;;;;20.81;29.02;99335.18;103970;1283;63347;-76
2024/01/16 03:36:16;;;;;;;13.50;9.00;;;;;;;20.81;28.92;99332.52;103737;1283;62232;-76
2024/01/16 03:38:42;;;;;;;12.00;9.20;;;;;;;20.81;28.92;99331.27;103921;1283;62140;-76
2024/01/16 03:41:08;;;;;;;11.20;8.90;;;;;;;20.82;29.08;99333.86;103724;1282;62149;-76
2024/01/16 03:43:34;;;;;;;12.70;8.90;;;;;;;20.83;28.92;99334.01;103731;1285;62214;-76
2024/01/16 03:46:00;;;;;;;14.00;8.80;;;;;;;20.83;29.05;99339.14;103639;1282;72563;-77
2024/01/16 03:48:26;;;;;;;15.00;9.70;;;;;;;20.84;28.99;99346.77;103688;1283;62225;-76
2024/01/16 03:50:53;;;;;;;12.50;8.90;;;;;;;20.84;29.05;99350.35;103860;1282;62239;-75
2024/01/16 03:53:19;;;;;;;13.00;9.30;;;;;;;20.84;28.95;99353.73;103795;1283;62185;-76
2024/01/16 03:55:45;;;;;;;14.10;9.30;;;;;;;20.84;28.96;99352.98;103703;1282;62145;-75
2024/01/16 03:58:10;;;;;;;14.20;9.40;;;;;;;20.84;28.96;99354.38;103741;1282;63482;-75
2024/01/16 04:00:36;;;;;;;13.00;9.00;;;;;;;20.84;28.86;99359.78;104037;1282;62200;-75
2024/01/16 04:03:02;;;;;;;11.60;8.50;;;;;;;20.85;29.10;99356.45;103774;1288;62141;-76
2024/01/16 04:05:28;;;;;;;12.10;9.00;;;;;;;20.85;29.04;99365.60;103652;1291;62184;-76
2024/01/16 04:07:54;;;;;;;13.20;9.10;;;;;;;20.85;28.99;99392.05;103392;1291;63231;-77
2024/01/16 04:10:20;;;;;;;12.50;8.50;;;;;;;20.86;28.94;99407.91;103522;1286;62145;-77
2024/01/16 04:12:45;;;;;;;11.10;8.50;;;;;;;20.87;29.03;99414.64;103758;1285;62111;-77
2024/01/16 04:15:11;;;;;;;12.40;8.60;;;;;;;20.87;28.96;99417.48;103528;1291;62151;-77
2024/01/16 04:17:37;;;;;;;14.70;9.40;;;;;;;20.87;29.06;99433.16;103332;1286;62277;-77
2024/01/16 04:20:03;;;;;;;11.60;9.20;;;;;;;20.87;28.95;99442.50;103643;1290;63249;-76
2024/01/16 04:22:29;;;;;;;14.30;8.90;;;;;;;20.87;28.92;99448.61;103516;1291;62367;-77
2024/01/16 04:24:54;;;;;;;13.00;8.90;;;;;;;20.88;28.99;99462.41;103543;1290;62244;-76
2024/01/16 04:27:20;;;;;;;12.00;8.20;;;;;;;20.89;29.03;99464.70;103469;1291;62346;-76
2024/01/16 04:29:46;;;;;;;13.80;8.90;;;;;;;20.88;29.07;99472.45;103502;1291;63380;-77
2024/01/16 04:32:11;;;;;;;12.40;9.20;;;;;;;20.88;29.05;99473.08;103828;1286;62235;-77
2024/01/16 04:34:37;;;;;;;12.50;8.20;;;;;;;20.88;28.92;99485.83;103482;1291;62642;-75
2024/01/16 04:37:03;;;;;;;11.80;8.40;;;;;;;20.88;28.87;99491.58;103665;1288;62196;-76
2024/01/16 04:39:29;;;;;;;15.20;9.00;;;;;;;20.87;29.08;99497.08;103909;1282;62332;-77
2024/01/16 04:41:54;;;;;;;11.90;8.50;;;;;;;20.87;28.96;99505.08;104142;1285;62202;-78
2024/01/16 04:44:20;;;;;;;12.10;8.10;;;;;;;20.87;28.91;99512.45;103850;1288;62197;-79
2024/01/16 04:46:45;;;;;;;12.00;8.40;;;;;;;20.86;28.90;99522.36;103900;1283;62274;-77
2024/01/16 04:49:11;;;;;;;12.40;8.90;;;;;;;20.85;28.93;99522.41;104103;1282;62264;-77
2024/01/16 04:51:37;;;;;;;12.50;8.90;;;;;;;20.85;28.97;99519.73;103898;1288;62584;-78
2024/01/16 04:54:03;;;;;;;11.00;8.00;;;;;;;20.85;28.76;99523.73;104073;1285;62191;-77
2024/01/16 04:56:28;;;;;;;12.00;8.50;;;;;;;20.84;28.82;99519.48;103927;1282;62180;-77
2024/01/16 04:58:54;;;;;;;11.70;8.20;;;;;;;20.84;28.85;99514.70;104141;1283;62194;-78
2024/01/16 05:01:19;;;;;;;12.10;8.30;;;;;;;20.83;29.06;99513.82;104270;1282;62245;-79
2024/01/16 05:03:45;;;;;;;11.60;8.30;;;;;;;20.84;28.86;99519.69;104791;1283;62200;-78
2024/01/16 05:06:17;;;;;;;11.90;7.90;;;;;;;20.84;28.93;99522.36;104518;1283;64385;-78
2024/01/16 05:08:43;;;;;;;10.80;8.10;;;;;;;20.84;28.89;99528.77;104451;1285;75714;-77
2024/01/16 05:11:09;;;;;;;11.10;7.90;;;;;;;20.84;28.91;99534.16;104276;1286;62095;-78
2024/01/16 05:13:34;;;;;;;11.70;7.70;;;;;;;20.85;28.89;99544.77;104195;1282;62178;-77
2024/01/16 05:16:00;;;;;;;11.30;7.90;;;;;;;20.85;28.94;99554.63;104353;1287;63261;-78
2024/01/16 05:18:26;;;;;;;11.50;8.10;;;;;;;20.85;28.93;99563.35;104775;1281;62030;-78
2024/01/16 05:20:51;;;;;;;10.70;7.80;;;;;;;20.86;28.88;99574.75;104352;1289;62198;-80
2024/01/16 05:23:17;;;;;;;10.40;7.90;;;;;;;20.86;28.90;99582.21;104158;1286;62194;-78
2024/01/16 05:25:43;;;;;;;11.40;7.90;;;;;;;20.86;28.85;99587.07;104111;1283;62585;-79
2024/01/16 05:28:10;;;;;;;11.20;7.70;;;;;;;20.86;28.96;99596.70;104424;1285;63398;-78
2024/01/16 05:30:36;;;;;;;10.10;7.60;;;;;;;20.86;28.95;99599.39;104343;1283;62190;-78
2024/01/16 05:33:01;;;;;;;10.30;7.40;;;;;;;20.86;28.96;99604.43;104068;1286;62267;-76
2024/01/16 05:35:28;;;;;;;11.00;8.10;;;;;;;20.86;28.95;99608.39;104215;1285;62536;-77
2024/01/16 05:37:55;;;;;;;11.20;8.10;;;;;;;20.83;28.86;99621.15;103749;1288;62266;-76
2024/01/16 05:40:22;;;;;;;10.50;8.00;;;;;;;20.81;28.97;99627.60;103748;1289;62232;-77
2024/01/16 05:42:51;;;;;;;10.80;7.60;;;;;;;20.78;28.92;99627.30;104152;1282;62171;-77
2024/01/16 05:45:17;;;;;;;10.90;7.90;;;;;;;20.74;28.75;99626.17;104341;1280;62184;-77
2024/01/16 05:47:42;;;;;;;11.00;8.10;;;;;;;20.71;28.82;99615.08;104791;1283;62079;-77
2024/01/16 05:50:08;;;;;;;12.50;8.20;;;;;;;20.66;28.68;99621.00;104523;1286;62101;-77
2024/01/16 05:52:34;;;;;;;11.60;8.00;;;;;;;20.61;28.62;99623.04;104288;1286;63323;-77
2024/01/16 05:55:02;;;;;;;13.00;8.30;;;;;;;20.57;28.56;99627.51;104604;1283;62335;-78
2024/01/16 05:57:29;;;;;;;13.20;7.90;;;;;;;20.53;28.58;99635.73;105134;1283;61957;-81
2024/01/16 05:59:55;;;;;;;15.20;7.90;;;;;;;20.49;28.48;99651.60;104931;1285;62047;-78
2024/01/16 06:02:20;;;;;;;11.10;7.50;;;;;;;20.45;28.63;99675.70;105550;1283;61957;-80
2024/01/16 06:04:46;;;;;;;12.80;7.10;;;;;;;20.42;28.42;99709.04;105268;1285;62106;-79
2024/01/16 06:07:12;;;;;;;12.60;7.30;;;;;;;20.39;28.47;99728.91;105536;1285;62075;-78
2024/01/16 06:09:41;;;;;;;12.10;6.80;;;;;;;20.38;28.46;99728.71;105324;1283;62075;-79
2024/01/16 06:12:09;;;;;;;11.40;6.60;;;;;;;20.37;28.53;99735.60;105337;1285;75306;-79
2024/01/16 06:14:35;;;;;;;10.20;6.50;;;;;;;20.36;28.50;99743.68;105064;1286;62152;-79
2024/01/16 06:17:09;;;;;;;9.90;7.10;;;;;;;20.36;28.43;99750.87;105367;1283;62194;-80
2024/01/16 06:19:35;;;;;;;9.50;6.60;;;;;;;20.35;28.41;99749.98;105538;1282;62082;-80
2024/01/16 06:22:00;;;;;;;12.40;7.70;;;;;;;20.37;28.43;99753.28;105403;1285;61467;-79
2024/01/16 06:24:26;;;;;;;10.60;6.60;;;;;;;20.37;28.35;99749.87;105469;1285;62049;-80
2024/01/16 06:26:52;;;;;;;9.40;6.60;;;;;;;20.36;28.35;99746.70;105226;1282;60034;-79
2024/01/16 06:29:18;;;;;;;12.00;7.00;;;;;;;20.37;28.26;99762.20;105249;1286;60696;-79
2024/01/16 06:31:44;;;;;;;11.60;6.80;;;;;;;20.37;28.22;99768.94;105367;1285;72546;-79
2024/01/16 06:34:09;;;;;;;8.90;6.40;;;;;;;20.36;28.16;99779.04;105218;1285;60231;-80
2024/01/16 06:36:35;;;;;;;9.40;6.90;;;;;;;20.36;28.08;99781.89;105338;1282;62235;-81
2024/01/16 06:39:00;;;;;;;8.40;6.50;;;;;;;20.36;28.02;99780.84;105716;1282;62049;-81
2024/01/16 06:41:26;;;;;;;12.20;7.40;;;;;;;20.36;28.07;99779.98;105546;1286;62161;-81
2024/01/16 06:43:52;;;;;;;10.90;7.30;;;;;;;20.35;28.10;99790.20;105458;1281;72491;-79
2024/01/16 06:46:18;;;;;;;12.30;7.30;;;;;;;20.35;27.97;99800.76;105368;1286;62066;-78
2024/01/16 06:48:43;;;;;;;9.60;7.20;;;;;;;20.35;27.97;99821.70;105353;1282;62139;-78
2024/01/16 06:51:10;;;;;;;9.80;7.60;;;;;;;20.35;27.97;99835.99;105627;1282;60823;-79
2024/01/16 06:53:37;;;;;;;10.70;7.90;;;;;;;20.34;27.90;99841.57;105684;1286;62063;-80
2024/01/16 06:56:03;;;;;;;11.70;7.90;;;;;;;20.33;27.97;99841.32;105583;1282;62087;-80
2024/01/16 06:58:28;;;;;;;15.30;8.90;;;;;;;20.31;28.11;99839.68;105582;1282;64607;-79
2024/01/16 07:00:54;;;;;;;15.70;9.30;;;;;;;20.31;28.55;99843.83;105573;1283;62265;-79
2024/01/16 07:03:20;;;;;;;17.60;9.00;;;;;;;20.30;28.79;99848.05;105629;1282;62095;-78
2024/01/16 07:05:45;;;;;;;13.70;8.00;;;;;;;20.28;28.79;99853.14;104935;1281;72562;-77
2024/01/16 07:08:11;;;;;;;16.40;9.20;;;;;;;20.29;28.86;99853.23;105133;1282;63294;-75
2024/01/16 07:10:36;;;;;;;17.70;9.10;;;;;;;20.31;28.87;99845.99;105253;1283;60883;-77
2024/01/16 07:13:02;;;;;;;12.90;8.70;;;;;;;20.32;28.93;99853.20;105349;1283;62072;-79
2024/01/16 07:15:28;;;;;;;18.20;8.50;;;;;;;20.34;28.73;99877.09;105253;1283;62108;-76
2024/01/16 07:17:54;;;;;;;14.00;8.30;;;;;;;20.38;28.89;99896.51;105311;1283;62242;-77
2024/01/16 07:20:19;;;;;;;13.20;8.70;;;;;;;20.40;28.80;99909.14;105196;1282;75160;-78
2024/01/16 07:22:45;;;;;;;18.30;8.20;;;;;;;20.43;28.80;99914.11;105361;1283;61181;-79
2024/01/16 07:25:11;;;;;;;11.00;8.00;;;;;;;20.46;28.90;99918.51;105268;1283;62200;-78
2024/01/16 07:27:37;;;;;;;19.80;8.30;;;;;;;20.48;29.03;99919.61;104308;1283;62188;-79
2024/01/16 07:30:06;;;;;;;15.50;8.50;;;;;;;20.51;29.00;99923.84;106595;1283;60645;-79
2024/01/16 07:32:32;;;;;;;18.70;8.90;;;;;;;20.52;29.07;99930.39;106648;1281;60327;-79
2024/01/16 07:34:58;;;;;;;16.30;8.60;;;;;;;20.53;29.23;99942.79;106373;1283;60725;-79
2024/01/16 07:37:23;;;;;;;18.80;8.50;;;;;;;20.56;29.30;99954.70;106202;1282;578610;-78
2024/01/16 07:39:49;;;;;;;21.30;8.60;;;;;;;20.60;29.30;99968.88;106343;1283;60714;-78
2024/01/16 07:42:15;;;;;;;15.40;8.10;;;;;;;20.62;29.43;99975.34;106189;1282;60836;-76
2024/01/16 07:44:40;;;;;;;15.50;8.00;;;;;;;20.64;29.63;99986.64;105532;1282;62184;-77
2024/01/16 07:47:06;;;;;;;16.40;7.90;;;;;;;20.66;29.74;99998.61;105129;1283;61951;-75
2024/01/16 07:49:32;;;;;;;24.40;8.80;;;;;;;20.68;29.72;99996.48;105423;1282;62596;-79
2024/01/16 07:51:58;;;;;;;15.40;7.70;;;;;;;20.69;29.81;99995.52;105008;1285;62627;-79
2024/01/16 07:54:25;;;;;;;19.00;8.90;;;;;;;20.68;29.90;99990.05;105278;1282;61425;-79
2024/01/16 07:56:51;;;;;;;24.70;9.00;;;;;;;20.65;30.23;99995.80;105731;1283;59863;-77
2024/01/16 07:59:17;;;;;;;20.60;8.60;;;;;;;20.64;30.43;100001.58;105695;1283;60247;-79
2024/01/16 08:01:43;;;;;;;18.10;8.90;;;;;;;20.64;30.68;100013.00;105361;1286;60854;-77
2024/01/16 08:04:08;;;;;;;20.20;9.40;;;;;;;20.67;30.87;100017.67;105509;1282;62851;-78
2024/01/16 08:06:34;;;;;;;28.00;9.30;;;;;;;20.68;30.92;100018.30;104531;1282;62194;-78
2024/01/16 08:09:00;;;;;;;20.50;9.00;;;;;;;20.69;30.98;100024.98;104152;1283;62207;-79
2024/01/16 08:11:25;;;;;;;21.40;8.60;;;;;;;20.71;31.10;100028.27;105055;1285;62081;-78
2024/01/16 08:13:51;;;;;;;19.30;7.80;;;;;;;20.72;31.08;100028.13;105225;1286;62097;-78
2024/01/16 08:16:17;;;;;;;16.60;8.60;;;;;;;20.74;31.18;100022.26;105234;1282;62203;-79
2024/01/16 08:18:42;;;;;;;16.40;7.90;;;;;;;20.76;31.33;100021.00;105116;1283;62155;-78
2024/01/16 08:21:08;;;;;;;15.60;8.40;;;;;;;20.78;31.21;100012.45;105202;1285;62059;-77
2024/01/16 08:23:34;;;;;;;20.70;7.90;;;;;;;20.79;31.46;100010.95;105366;1283;60954;-78
2024/01/16 08:26:00;;;;;;;22.10;8.50;;;;;;;20.82;31.45;100025.23;105288;1282;62185;-77
2024/01/16 08:28:26;;;;;;;21.40;8.40;;;;;;;20.84;31.52;100038.81;106775;1282;59679;-77
2024/01/16 08:30:52;;;;;;;20.90;8.30;;;;;;;20.85;31.63;100048.52;106642;1283;59961;-77
2024/01/16 08:33:18;;;;;;;14.00;7.30;;;;;;;20.87;31.79;100057.69;105254;1285;62119;-77
2024/01/16 08:35:44;;;;;;;19.00;7.80;;;;;;;20.87;32.03;100062.86;105034;1283;62128;-79
2024/01/16 08:38:10;;;;;;;22.00;8.40;;;;;;;20.90;32.05;100060.70;104951;1286;63309;-78
2024/01/16 08:40:35;;;;;;;17.80;7.90;;;;;;;20.91;32.27;100066.45;105120;1283;62098;-76
2024/01/16 08:43:01;;;;;;;12.50;7.40;;;;;;;20.92;32.33;100066.73;104965;1285;59423;-78
2024/01/16 08:45:27;;;;;;;19.60;7.60;;;;;;;20.94;32.28;100073.05;104072;1283;62108;-78
2024/01/16 08:47:52;;;;;;;17.80;7.80;;;;;;;20.95;32.31;100079.45;104225;1285;62191;-79
2024/01/16 08:50:18;;;;;;;15.50;7.30;;;;;;;20.96;32.33;100084.89;104402;1283;62221;-78
2024/01/16 08:52:44;;;;;;;14.00;7.50;;;;;;;20.97;32.33;100082.48;106742;1283;59792;-80
2024/01/16 08:55:09;;;;;;;18.80;7.30;;;;;;;20.98;32.44;100083.10;106619;1281;59851;-79
2024/01/16 08:57:37;;;;;;;24.30;7.80;;;;;;;20.98;32.68;100082.57;106346;1283;73613;-78
2024/01/16 09:00:08;;;;;;;38.90;8.00;;;;;;;20.96;33.24;100091.30;106508;1283;75300;-78
2024/01/16 09:02:35;;;;;;;38.00;8.90;;;;;;;20.95;33.69;100105.33;106393;1282;60340;-79
2024/01/16 09:05:00;;;;;;;27.50;7.60;;;;;;;20.95;34.03;100109.80;106345;1283;60230;-79
2024/01/16 09:07:26;;;;;;;20.60;7.80;;;;;;;20.94;34.00;100109.14;106655;1283;60780;-78
2024/01/16 09:09:52;;;;;;;21.60;7.20;;;;;;;20.94;33.85;100107.77;106819;1282;60217;-80
2024/01/16 09:12:17;;;;;;;18.30;7.50;;;;;;;20.92;33.83;100112.72;106809;1282;60590;-78
2024/01/16 09:14:43;;;;;;;28.10;9.10;;;;;;;20.90;33.76;100122.57;105555;1282;62165;-81
2024/01/16 09:17:09;;;;;;;17.90;7.40;;;;;;;20.87;33.65;100116.33;105581;1283;62113;-79
2024/01/16 09:19:35;;;;;;;17.00;7.80;;;;;;;20.86;33.54;100120.70;105454;1283;72329;-80
2024/01/16 09:22:00;;;;;;;18.30;8.20;;;;;;;20.84;33.49;100129.68;105275;1283;62923;-80
2024/01/16 09:24:26;;;;;;;17.00;7.10;;;;;;;20.81;33.28;100126.91;105614;1282;60427;-79
2024/01/16 09:26:51;;;;;;;24.40;7.70;;;;;;;20.78;33.17;100136.01;105237;1283;62104;-80
2024/01/16 09:29:17;;;;;;;22.80;8.40;;;;;;;20.76;33.16;100145.30;105137;1285;62066;-79
2024/01/16 09:31:43;;;;;;;21.70;7.70;;;;;;;20.74;33.14;100156.89;105421;1281;62069;-80
2024/01/16 09:34:08;;;;;;;18.80;7.40;;;;;;;20.73;33.00;100162.00;105476;1285;59994;-77
2024/01/16 09:36:37;;;;;;;18.80;7.20;;;;;;;20.71;33.00;100161.64;105279;1282;62194;-78
2024/01/16 09:39:07;;;;;;;18.50;7.50;;;;;;;20.70;33.25;100164.79;105531;1282;61977;-78
2024/01/16 09:41:41;;;;;;;22.60;8.20;;;;;;;20.68;33.29;100166.84;105382;1282;73597;-78
2024/01/16 09:44:07;;;;;;;18.40;8.00;;;;;;;20.67;33.27;100164.42;105222;1282;75354;-80
2024/01/16 09:46:32;;;;;;;17.70;8.10;;;;;;;20.66;33.28;100169.70;105499;1282;62090;-80
2024/01/16 09:49:03;;;;;;;17.10;8.30;;;;;;;20.64;33.08;100177.90;105324;1282;62258;-78
2024/01/16 09:51:29;;;;;;;17.60;8.00;;;;;;;20.61;32.97;100175.61;105521;1282;72650;-79
2024/01/16 09:53:55;;;;;;;24.60;8.90;;;;;;;20.53;32.54;100171.05;105610;1283;59880;-79
2024/01/16 09:56:24;;;;;;;28.90;8.90;;;;;;;20.41;32.50;100172.86;105802;1282;59930;-77
2024/01/16 09:58:50;;;;;;;18.60;8.20;;;;;;;20.33;32.43;100173.34;105798;1282;61967;-80
2024/01/16 10:01:15;;;;;;;26.40;8.30;;;;;;;20.26;32.33;100176.93;105886;1288;60745;-82
2024/01/16 10:03:46;;;;;;;22.00;8.20;;;;;;;20.23;32.24;100174.11;105786;1283;62040;-79
2024/01/16 10:06:12;;;;;;;25.30;8.00;;;;;;;20.17;32.18;100174.36;105710;1283;62402;-79
2024/01/16 10:08:37;;;;;;;18.00;7.40;;;;;;;20.12;31.95;100173.71;105984;1282;61239;-78
2024/01/16 10:11:03;;;;;;;19.00;7.20;;;;;;;20.04;31.77;100173.27;106113;1281;62022;-81
2024/01/16 10:13:29;;;;;;;19.00;7.60;;;;;;;20.02;31.90;100171.58;105061;1282;62168;-80
2024/01/16 10:15:55;;;;;;;11.90;6.60;;;;;;;20.02;32.05;100171.42;105845;1283;59972;-80
2024/01/16 10:18:29;;;;;;;15.90;6.60;;;;;;;20.01;31.69;100178.45;105718;1282;62081;-80
2024/01/16 10:20:55;;;;;;;17.50;6.40;;;;;;;19.93;31.42;100181.39;105413;1283;61955;-82
2024/01/16 10:23:27;;;;;;;15.00;6.20;;;;;;;19.82;31.49;100178.61;105251;1285;60363;-81
2024/01/16 10:26:09;;;;;;;13.90;6.30;;;;;;;19.83;31.33;100177.71;105317;1281;75090;-79
2024/01/16 10:28:36;;;;;;;13.20;6.00;;;;;;;19.79;31.54;100186.90;105542;1282;61925;-81
2024/01/16 10:31:03;;;;;;;11.80;6.50;;;;;;;19.76;31.39;100185.48;106686;1283;60669;-79
2024/01/16 10:33:29;;;;;;;18.30;5.70;;;;;;;19.73;31.20;100187.86;105433;1281;71392;-80
2024/01/16 10:36:13;;;;;;;16.30;5.40;;;;;;;19.62;31.03;100194.19;105519;1282;62209;-79
2024/01/16 10:38:40;;;;;;;9.90;5.00;;;;;;;19.56;30.89;100198.23;105939;1281;61993;-79
2024/01/16 10:41:07;;;;;;;14.90;4.50;;;;;;;19.49;30.58;100200.39;105849;1282;60918;-78
2024/01/16 10:43:33;;;;;;;15.80;4.80;;;;;;;19.40;30.51;100192.79;105671;1282;72401;-80
2024/01/16 10:46:13;;;;;;;14.40;4.70;;;;;;;19.41;30.80;100196.79;105657;1285;62167;-79
2024/01/16 10:48:40;;;;;;;17.70;4.80;;;;;;;19.47;31.00;100199.23;105837;1281;60043;-79
2024/01/16 10:51:15;;;;;;;10.90;4.00;;;;;;;19.49;30.96;100195.52;105663;1283;60949;-78
2024/01/16 10:53:42;;;;;;;14.50;4.30;;;;;;;19.47;30.87;100200.84;105702;1283;72415;-81
2024/01/16 10:56:10;;;;;;;9.20;4.10;;;;;;;19.43;30.66;100202.23;105510;1285;76028;-80
2024/01/16 10:58:36;;;;;;;14.50;3.70;;;;;;;19.38;30.50;100206.66;105460;1282;61990;-80
2024/01/16 11:01:03;;;;;;;12.30;4.20;;;;;;;19.35;30.59;100211.21;105265;1283;62184;-81
2024/01/16 11:03:49;;;;;;;18.10;4.60;;;;;;;19.21;30.53;100213.45;105820;1282;72672;-78
2024/01/16 11:06:16;;;;;;;16.10;5.10;;;;;;;19.11;30.45;100217.91;106083;1282;76137;-80
2024/01/16 11:08:42;;;;;;;10.40;4.50;;;;;;;19.13;30.42;100220.66;106746;1281;60820;-81